Kent, Illinois
Current Conditions -  °F | °C
As of 2:35 AM on Thursday 23 Oct 2014 (Local Time) from KFEP Reporting Station
Clear Clear  
Wind Chill: 31°   Ceiling: Unl
Heat Index: 35°   Visibility: 10mi
Dew Point: 32°   Wind: 5mph
Humidity: 91%   Direction: 140°SE
Pressure: 30.21"   Gusts: NA
Location:  42.31°N, 89.9°W
Report Text: KFEP 230735Z AUTO 14004KT 10SM CLR 02/00 A3021 RMK AO2 T00160002
Loading
Personal Weather Stations






























Interactive Weather Map New forecast layout! Learn more

10-Day Weather Forecast

Advertisements
Track Severe Weather on mobile